RJOB Airport Information

Runway Information
Runway 07 Length 9843 ft width 150 ft
Elevation 806 ft Threshold 0 ft Heading 59
Runway 25 Length 9843 ft Width 150 ft
Elevation 804 ft Threshold 0 ft Heading 239
Airport Frequencies
Type APP Name TAKAMATSU Frequency 120.4 MHZ
Type TWR Name TWR Frequency 124.3 MHZ
Airport Navaids
Type VORTAC Name Okayama Frequency 115900 KHZ
Type VOR-DME Name Kibi Frequency 111000 KHZ
Airport Weather Information & NOTAM
ADDS - METARS form results

(1904 UTC 17 February 2019)
Data provider http://aviationweather.gov/metar/data/
 
Forecast for: RJOB (OKAYAMA AIRPORT , JP)
Text: TAF RJOB 171707Z 1718/1900 12004KT CAVOK
Forecast period: 1800 UTC 17 February 2019 to 0000 UTC 19 February 2019
Forecast type: FROM: standard forecast or significant change
Winds: from the ESE (120 degrees) at 5 MPH (4 knots; 2.1 m/s)
Visibility: 6 or more miles 10+ km)
Ceiling: unknown
Clouds: missing
Weather: NSW  (no significant weather)
Text: TEMPO 1821/1900 3000 -RA BR BCFG FEW000 SCT005 BKN008
Forecast period: 2100 UTC 18 February 2019 to 0000 UTC 19 February 2019
Forecast type: TEMPORARY: The following changes expected for less than half the time period
Visibility: 1.86 miles (2.99 km)
Ceiling: 800 feet AGL
Clouds: few clouds at 0 feet AGL
scattered clouds at 500 feet AGL
broken clouds at 800 feet AGL
Weather: -RA BR BCFG  (light rain, mist, patches of fog)